KLYH/LYH METAR and TAF weather

Enter ICAO airport designator
Station Type Date Time Source
KLYH METAR 2022/07/01 00:54 UTC NOAA

KLYH 010054Z 19005KT 10SM OVC110 27/19 A3018 RMK AO2 SLP208 T02720194


Station Type Date Time Source
KLYH Decoded METAR 2022/07/01 00:54 UTC NOAA

LYNCHBURG REGIONAL AIRPORT, VA, United States (KLYH) 37-19N 079-12W 295M
Jun 30, 2022 - 08:54 PM EDT / 2022.07.01 0054 UTC
Wind: from the S (190 degrees) at 6 MPH (5 KT):0
Visibility: 10 mile(s):0
Sky conditions: overcast
Temperature: 81.0 F (27.2 C)
Dew Point: 66.9 F (19.4 C)
Relative Humidity: 62%
Pressure (altimeter): 30.18 in. Hg (1022 hPa)
ob: KLYH 010054Z 19005KT 10SM OVC110 27/19 A3018 RMK AO2 SLP208 T02720194
cycle: 1

Station Type Date Time Source
KLYH TAF 2022/06/30 18:40 UTC NOAA

TAF KLYH 301738Z 3018/0118 19005KT P6SM FEW040 BKN060
FM302100 18006KT P6SM SCT040 BKN080
FM010000 VRB03KT P6SM FEW080
FM010900 00000KT 2SM BR SCT250
FM011300 VRB03KT P6SM FEW070

Example: see airport list